Time;durP1;ratioP1;P1;durP2;ratioP2;P2;SDS_P1;SDS_P2;PMS_P1;PMS_P2;Temp;Humidity;BMP_temperature;BMP_pressure;BME280_temperature;BME280_humidity;BME280_pressure;Samples;Min_cycle;Max_cycle;Signal;HPM_P1;HPM_P2
2023/07/16 00:01:51;;;;;;;9.27;1.88;;;;;;;21.28;68.89;100243.84;5038239;28;20025;-69
2023/07/16 00:04:17;;;;;;;13.57;2.63;;;;;;;21.26;69.08;100241.25;5038105;28;20083;-69
2023/07/16 00:06:42;;;;;;;10.27;2.00;;;;;;;21.23;68.57;100236.91;5045409;28;20028;-69
2023/07/16 00:09:07;;;;;;;7.63;2.17;;;;;;;21.21;68.69;100233.44;5050321;28;20284;-69
2023/07/16 00:11:33;;;;;;;7.40;1.90;;;;;;;21.18;68.89;100232.69;5060139;28;20029;-69
2023/07/16 00:13:59;;;;;;;9.43;1.70;;;;;;;21.18;69.11;100222.88;5057834;28;20028;-69
2023/07/16 00:16:24;;;;;;;6.82;1.77;;;;;;;21.20;68.96;100226.34;5055116;28;20021;-69
2023/07/16 00:18:50;;;;;;;8.70;1.60;;;;;;;21.18;68.67;100224.66;5062429;28;20032;-69
2023/07/16 00:21:15;;;;;;;11.33;2.03;;;;;;;21.10;68.63;100214.34;5057807;28;20500;-69
2023/07/16 00:23:40;;;;;;;7.50;1.60;;;;;;;21.06;68.64;100213.63;5057933;28;20029;-69
2023/07/16 00:26:06;;;;;;;8.73;1.93;;;;;;;21.06;68.75;100215.44;5038482;28;20037;-69
2023/07/16 00:28:31;;;;;;;9.00;2.00;;;;;;;21.07;68.96;100215.38;5037585;28;20056;-69
2023/07/16 00:30:57;;;;;;;9.97;1.83;;;;;;;21.11;68.94;100215.22;5035893;28;20025;-69
2023/07/16 00:33:22;;;;;;;11.37;2.20;;;;;;;21.08;68.92;100211.75;5037814;28;20026;-69
2023/07/16 00:35:50;;;;;;;8.60;2.13;;;;;;;21.11;68.70;100212.53;5037435;28;20036;-69
2023/07/16 00:38:19;;;;;;;9.13;2.20;;;;;;;21.07;68.59;100217.16;5037659;28;20068;-69
2023/07/16 00:40:46;;;;;;;10.07;2.08;;;;;;;21.07;68.45;100219.84;5043515;28;20507;-69
2023/07/16 00:43:11;;;;;;;8.23;2.15;;;;;;;21.06;68.71;100212.75;5044270;28;20051;-69
2023/07/16 00:45:38;;;;;;;9.57;2.03;;;;;;;21.07;68.63;100211.81;5049591;28;20029;-69
2023/07/16 00:48:06;;;;;;;9.68;2.05;;;;;;;21.07;68.35;100210.00;5037454;28;20037;-69
2023/07/16 00:50:36;;;;;;;9.20;1.98;;;;;;;21.07;68.49;100214.47;5037279;28;20375;-69
2023/07/16 00:53:02;;;;;;;9.82;1.90;;;;;;;21.07;68.39;100210.00;5037441;28;20022;-69
2023/07/16 00:55:29;;;;;;;9.00;2.00;;;;;;;21.11;68.08;100209.84;5042886;28;20053;-69
2023/07/16 00:58:00;;;;;;;7.90;1.83;;;;;;;21.11;68.45;100212.53;5053750;28;20033;-69
2023/07/16 01:00:25;;;;;;;9.15;1.70;;;;;;;21.07;68.29;100225.19;5037265;28;20036;-69
2023/07/16 01:02:51;;;;;;;8.43;1.57;;;;;;;20.98;68.19;100215.81;5037186;28;20493;-69
2023/07/16 01:05:17;;;;;;;10.50;1.60;;;;;;;20.94;68.13;100215.09;5037132;28;20052;-69
2023/07/16 01:07:55;;;;;;;10.03;1.83;;;;;;;20.93;68.54;100205.34;5052018;28;20029;-69
2023/07/16 01:10:22;;;;;;;7.38;1.80;;;;;;;20.91;68.34;100204.53;5054289;28;20106;-69
2023/07/16 01:12:50;;;;;;;6.00;1.83;;;;;;;20.93;68.42;100208.00;5041727;28;20516;-69
2023/07/16 01:15:15;;;;;;;7.70;1.70;;;;;;;20.92;68.48;100210.75;5041659;28;20056;-69
2023/07/16 01:17:41;;;;;;;6.43;1.40;;;;;;;20.88;68.13;100202.00;5058585;28;20032;-69
2023/07/16 01:20:08;;;;;;;6.53;1.67;;;;;;;20.80;68.43;100204.16;5056890;28;20366;-69
2023/07/16 01:23:02;;;;;;;10.55;2.33;;;;;;;20.79;68.46;100199.72;5056875;28;20473;-69
2023/07/16 01:25:49;;;;;;;7.53;1.50;;;;;;;20.77;68.39;100207.84;5041267;28;20636;-69
2023/07/16 01:28:35;;;;;;;7.13;1.30;;;;;;;20.74;68.27;100209.78;5036803;28;20037;-69
2023/07/16 01:31:01;;;;;;;7.77;1.70;;;;;;;20.74;68.28;100201.75;5043338;28;20025;-69
2023/07/16 01:33:27;;;;;;;6.57;1.27;;;;;;;20.75;67.91;100203.50;5055539;28;20389;-69
2023/07/16 01:35:54;;;;;;;8.30;1.47;;;;;;;20.73;68.06;100200.88;5055129;28;20477;-69
2023/07/16 01:38:20;;;;;;;8.20;1.60;;;;;;;20.73;67.85;100192.84;5056774;28;20107;-69
2023/07/16 01:40:46;;;;;;;9.82;1.50;;;;;;;20.74;68.17;100199.97;5050090;28;20030;-69
2023/07/16 01:43:12;;;;;;;10.38;2.53;;;;;;;20.76;67.73;100190.06;5043667;28;20036;-69
2023/07/16 01:45:38;;;;;;;6.23;1.57;;;;;;;20.73;67.70;100200.03;5047528;28;20033;-69
2023/07/16 01:48:26;;;;;;;7.87;1.63;;;;;;;20.67;68.47;100197.66;5036857;28;20470;-69
2023/07/16 01:50:51;;;;;;;8.83;1.93;;;;;;;20.68;68.06;100196.72;5045793;28;20296;-69
2023/07/16 01:53:17;;;;;;;7.72;1.52;;;;;;;20.71;68.17;100191.22;5056456;28;20085;-69
2023/07/16 01:55:42;;;;;;;5.67;1.40;;;;;;;20.75;67.76;100182.09;5039191;28;20096;-69
2023/07/16 01:58:09;;;;;;;10.13;1.60;;;;;;;20.78;67.99;100179.25;5051676;28;20478;-70
2023/07/16 02:00:35;;;;;;;7.38;1.50;;;;;;;20.74;67.44;100181.25;5039285;28;20028;-69
2023/07/16 02:03:01;;;;;;;10.18;1.83;;;;;;;20.71;67.64;100177.84;5040952;28;20528;-69
2023/07/16 02:05:26;;;;;;;8.83;1.37;;;;;;;20.67;67.92;100178.91;5060370;28;20496;-69
2023/07/16 02:07:51;;;;;;;6.40;1.40;;;;;;;20.65;67.74;100166.50;5060379;28;20025;-69
2023/07/16 02:10:17;;;;;;;10.13;1.90;;;;;;;20.64;67.94;100174.56;5053742;28;20024;-69
2023/07/16 02:12:42;;;;;;;9.37;1.67;;;;;;;20.63;68.06;100176.41;5046729;28;20025;-69
2023/07/16 02:15:08;;;;;;;7.38;1.40;;;;;;;20.65;67.73;100179.88;5043897;28;20025;-69
2023/07/16 02:17:33;;;;;;;8.83;1.53;;;;;;;20.63;67.74;100173.72;5061945;28;20072;-69
2023/07/16 02:19:59;;;;;;;7.40;1.60;;;;;;;20.60;68.02;100183.69;5059981;28;20025;-69
2023/07/16 02:22:24;;;;;;;9.30;1.70;;;;;;;20.56;67.94;100171.41;5060164;28;20063;-69
2023/07/16 02:24:49;;;;;;;7.93;1.40;;;;;;;20.56;68.21;100180.28;5051588;28;20116;-69
2023/07/16 02:27:15;;;;;;;6.20;1.60;;;;;;;20.58;67.85;100181.06;5038489;28;20040;-69
2023/07/16 02:29:40;;;;;;;6.77;1.40;;;;;;;20.61;67.63;100178.25;5040049;28;20550;-69
2023/07/16 02:32:06;;;;;;;6.60;1.30;;;;;;;20.63;68.04;100172.84;5039818;28;20029;-69
2023/07/16 02:34:31;;;;;;;8.00;1.25;;;;;;;20.61;67.73;100178.25;5038760;28;20482;-69
2023/07/16 02:36:57;;;;;;;5.53;1.20;;;;;;;20.58;67.63;100178.41;5039809;28;20087;-69
2023/07/16 02:39:23;;;;;;;10.07;2.07;;;;;;;20.57;67.49;100183.84;5040374;28;20052;-69
2023/07/16 02:41:49;;;;;;;9.23;1.43;;;;;;;20.58;67.82;100191.78;5043278;28;20296;-69
2023/07/16 02:44:14;;;;;;;9.52;1.85;;;;;;;20.54;67.69;100190.19;5053380;28;20068;-69
2023/07/16 02:46:41;;;;;;;8.67;1.47;;;;;;;20.52;67.92;100197.44;5044544;28;20470;-69
2023/07/16 02:49:07;;;;;;;6.32;1.45;;;;;;;20.51;67.69;100193.00;5039939;28;20036;-69
2023/07/16 02:51:32;;;;;;;7.60;1.30;;;;;;;20.48;67.86;100194.00;5039530;28;20088;-69
2023/07/16 02:53:57;;;;;;;9.50;1.70;;;;;;;20.45;67.38;100191.47;5039461;28;20071;-69
2023/07/16 02:56:23;;;;;;;8.07;1.40;;;;;;;20.42;67.84;100196.13;5052683;28;20051;-69
2023/07/16 02:58:48;;;;;;;8.32;1.90;;;;;;;20.44;67.87;100196.94;5049097;28;20029;-69
2023/07/16 03:01:14;;;;;;;9.93;1.70;;;;;;;20.44;67.73;100188.91;5056180;28;20485;-69
2023/07/16 03:03:39;;;;;;;8.03;1.97;;;;;;;20.44;67.61;100188.91;5059529;28;20025;-69
2023/07/16 03:06:04;;;;;;;8.23;1.60;;;;;;;20.45;67.71;100190.63;5059049;28;20476;-69
2023/07/16 03:08:31;;;;;;;9.35;2.17;;;;;;;20.44;67.74;100179.06;5056772;28;20485;-69
2023/07/16 03:10:57;;;;;;;6.87;1.40;;;;;;;20.48;67.46;100186.00;5057081;28;20035;-69
2023/07/16 03:13:23;;;;;;;8.25;1.50;;;;;;;20.45;67.71;100178.13;5039208;28;20123;-69
2023/07/16 03:15:48;;;;;;;10.45;1.73;;;;;;;20.40;67.41;100176.63;5046681;28;20033;-69
2023/07/16 03:18:13;;;;;;;7.47;1.80;;;;;;;20.36;67.44;100184.75;5062425;28;20532;-69
2023/07/16 03:20:39;;;;;;;7.53;1.40;;;;;;;20.35;67.50;100182.16;5059075;28;20100;-69
2023/07/16 03:23:04;;;;;;;8.77;1.67;;;;;;;20.33;67.56;100187.56;5057767;28;20032;-69
2023/07/16 03:25:30;;;;;;;10.68;1.83;;;;;;;20.35;67.72;100193.72;5044167;28;20033;-69
2023/07/16 03:27:55;;;;;;;8.67;1.50;;;;;;;20.34;67.85;100188.44;5038869;28;20033;-69
2023/07/16 03:30:20;;;;;;;6.60;1.30;;;;;;;20.35;67.67;100191.03;5038559;28;20025;-69
2023/07/16 03:32:46;;;;;;;10.00;1.40;;;;;;;20.33;68.08;100187.56;5037587;28;20442;-69
2023/07/16 03:35:11;;;;;;;8.80;1.60;;;;;;;20.31;67.86;100185.94;5038869;28;20482;-69
2023/07/16 03:37:37;;;;;;;7.78;1.23;;;;;;;20.29;67.69;100191.34;5038867;28;20025;-69
2023/07/16 03:40:16;;;;;;;4.97;1.23;;;;;;;20.25;67.99;100189.75;5043992;28;20033;-69
2023/07/16 03:42:42;;;;;;;7.97;1.50;;;;;;;20.22;68.18;100189.88;5040992;28;20017;-69
2023/07/16 03:45:09;;;;;;;7.53;1.30;;;;;;;20.18;68.24;100189.16;5053725;28;20033;-69
2023/07/16 03:47:34;;;;;;;9.05;1.73;;;;;;;20.18;68.38;100185.63;5038652;28;20079;-69
2023/07/16 03:49:59;;;;;;;8.70;1.60;;;;;;;20.17;68.49;100194.59;5038429;28;20047;-69
2023/07/16 03:52:26;;;;;;;9.30;1.80;;;;;;;20.18;68.25;100188.28;5038889;28;20460;-69
2023/07/16 03:54:52;;;;;;;5.67;1.20;;;;;;;20.16;68.50;100206.22;5039941;28;20276;-69
2023/07/16 03:57:17;;;;;;;8.27;1.38;;;;;;;20.08;68.20;100198.53;5053072;28;20174;-69
2023/07/16 03:59:42;;;;;;;12.77;1.67;;;;;;;20.09;68.67;100194.91;5042601;28;20030;-69
2023/07/16 04:02:08;;;;;;;9.95;1.63;;;;;;;20.13;68.47;100200.97;5038346;28;20159;-69
2023/07/16 04:04:33;;;;;;;8.83;1.63;;;;;;;20.12;68.76;100208.16;5038442;28;20037;-69
2023/07/16 04:06:59;;;;;;;9.83;1.70;;;;;;;20.09;68.43;100216.31;5047761;28;20107;-69
2023/07/16 04:09:24;;;;;;;7.30;1.40;;;;;;;20.06;68.51;100211.94;5048141;28;20028;-69
2023/07/16 04:11:50;;;;;;;7.70;1.53;;;;;;;20.04;68.80;100207.63;5056390;28;20691;-69
2023/07/16 04:14:15;;;;;;;8.57;1.40;;;;;;;20.04;68.36;100205.81;5036664;28;20029;-69
2023/07/16 04:16:41;;;;;;;10.27;1.83;;;;;;;20.08;68.42;100210.06;5052279;28;20020;-69
2023/07/16 04:19:07;;;;;;;8.00;1.80;;;;;;;20.07;68.68;100208.34;5059586;28;20025;-69
2023/07/16 04:21:32;;;;;;;10.30;1.80;;;;;;;20.05;68.92;100212.91;5056766;28;20031;-69
2023/07/16 04:23:58;;;;;;;11.57;1.67;;;;;;;20.03;68.56;100217.44;5055462;28;20025;-69
2023/07/16 04:26:23;;;;;;;8.50;1.50;;;;;;;20.01;68.89;100219.31;5038071;28;20545;-69
2023/07/16 04:28:48;;;;;;;9.05;1.50;;;;;;;19.99;69.07;100226.53;5037639;28;20029;-69
2023/07/16 04:31:14;;;;;;;6.23;1.53;;;;;;;19.93;69.34;100225.00;5037765;28;20120;-69
2023/07/16 04:33:39;;;;;;;7.77;1.60;;;;;;;19.89;69.11;100222.47;5037835;28;20030;-69
2023/07/16 04:36:05;;;;;;;13.63;1.80;;;;;;;19.91;68.98;100228.69;5037896;28;20036;-69
2023/07/16 04:38:30;;;;;;;9.45;1.50;;;;;;;19.91;69.05;100234.03;5037902;28;20129;-69
2023/07/16 04:40:55;;;;;;;8.27;1.60;;;;;;;19.89;69.46;100228.72;5041958;28;20403;-69
2023/07/16 04:43:21;;;;;;;10.10;1.60;;;;;;;19.90;69.08;100222.44;5042539;28;20025;-69
2023/07/16 04:45:46;;;;;;;8.60;1.80;;;;;;;19.89;69.09;100225.16;5047587;28;20576;-69
2023/07/16 04:48:13;;;;;;;6.20;1.50;;;;;;;19.87;69.18;100222.56;5037572;28;20025;-69
2023/07/16 04:50:39;;;;;;;11.10;1.90;;;;;;;19.86;69.28;100222.63;5037579;28;20044;-69
2023/07/16 04:53:04;;;;;;;9.10;1.70;;;;;;;19.87;69.04;100227.91;5047637;28;20033;-69
2023/07/16 04:55:35;;;;;;;7.17;1.40;;;;;;;19.84;69.45;100225.38;5039988;28;20075;-69
2023/07/16 04:58:00;;;;;;;8.30;1.60;;;;;;;19.84;69.15;100219.16;5046183;28;20502;-69
2023/07/16 05:00:26;;;;;;;13.50;1.80;;;;;;;19.84;69.44;100217.34;5037417;28;20091;-69
2023/07/16 05:02:51;;;;;;;8.43;1.77;;;;;;;19.86;69.37;100225.28;5037379;28;20056;-69
2023/07/16 05:05:16;;;;;;;10.27;1.80;;;;;;;19.83;69.46;100225.44;5037265;28;20037;-69
2023/07/16 05:07:42;;;;;;;10.47;1.60;;;;;;;19.83;69.41;100225.44;5052395;28;20113;-69
2023/07/16 05:10:08;;;;;;;7.23;1.60;;;;;;;19.82;69.41;100223.69;5049203;28;20028;-69
2023/07/16 05:12:33;;;;;;;8.05;1.60;;;;;;;19.82;69.30;100219.22;5047150;28;20040;-69
2023/07/16 05:14:58;;;;;;;9.23;1.70;;;;;;;19.85;69.64;100215.53;5038171;28;20033;-69
2023/07/16 05:17:24;;;;;;;8.17;1.53;;;;;;;19.86;69.20;100218.16;5059095;28;20025;-69
2023/07/16 05:19:49;;;;;;;9.88;1.63;;;;;;;19.91;69.20;100220.66;5056851;28;20017;-69
2023/07/16 05:22:15;;;;;;;7.03;1.30;;;;;;;19.96;69.01;100221.34;5057285;28;20048;-69
2023/07/16 05:24:40;;;;;;;7.60;1.80;;;;;;;19.96;69.21;100224.00;5048138;28;20099;-69
2023/07/16 05:27:06;;;;;;;8.80;1.93;;;;;;;19.93;69.04;100235.69;5036662;28;20097;-69
2023/07/16 05:29:31;;;;;;;10.10;1.55;;;;;;;19.92;68.90;100230.44;5036058;28;20033;-69
2023/07/16 05:31:56;;;;;;;9.80;1.77;;;;;;;19.93;69.42;100229.50;5036458;28;20037;-69
2023/07/16 05:34:22;;;;;;;8.47;1.80;;;;;;;19.90;69.23;100229.59;5037076;28;20064;-69
2023/07/16 05:36:47;;;;;;;11.27;1.60;;;;;;;19.89;69.59;100225.16;5037073;28;20036;-69
2023/07/16 05:39:13;;;;;;;9.52;1.70;;;;;;;19.90;69.34;100229.59;5036990;28;20031;-69
2023/07/16 05:41:39;;;;;;;9.57;1.53;;;;;;;19.93;69.39;100237.50;5040551;28;20034;-69
2023/07/16 05:44:04;;;;;;;9.20;1.75;;;;;;;19.93;69.53;100237.50;5048417;28;20032;-69
2023/07/16 05:46:30;;;;;;;10.90;1.70;;;;;;;20.00;69.39;100235.41;5042596;28;20033;-69
2023/07/16 05:48:55;;;;;;;9.03;1.60;;;;;;;20.02;69.08;100231.75;5045184;28;20037;-69
2023/07/16 05:51:20;;;;;;;9.82;1.90;;;;;;;20.04;69.28;100243.22;5056626;28;20098;-69
2023/07/16 05:53:46;;;;;;;12.33;2.07;;;;;;;20.02;69.45;100236.25;5053548;28;20397;-69
2023/07/16 05:56:12;;;;;;;10.97;1.80;;;;;;;20.03;69.18;100238.81;5037797;28;20057;-69
2023/07/16 05:58:37;;;;;;;11.55;1.67;;;;;;;20.12;69.16;100237.56;5045056;28;20040;-69
2023/07/16 06:01:02;;;;;;;9.10;1.60;;;;;;;20.21;68.53;100230.94;5036521;28;20103;-69
2023/07/16 06:03:28;;;;;;;8.97;1.73;;;;;;;20.27;68.55;100222.63;5036655;28;20502;-69
2023/07/16 06:05:53;;;;;;;10.03;1.70;;;;;;;20.32;68.44;100230.44;5036769;28;20029;-69
2023/07/16 06:08:20;;;;;;;9.80;1.65;;;;;;;20.35;68.32;100228.47;5055393;28;20029;-69
2023/07/16 06:10:45;;;;;;;9.30;1.90;;;;;;;20.41;68.28;100231.84;5054971;28;20056;-69
2023/07/16 06:13:10;;;;;;;9.33;1.83;;;;;;;20.47;68.05;100229.72;5036502;28;20026;-69
2023/07/16 06:15:36;;;;;;;13.00;1.80;;;;;;;20.55;68.22;100224.03;5043393;28;20067;-69
2023/07/16 06:18:02;;;;;;;9.88;2.00;;;;;;;20.65;67.99;100222.69;5057891;28;20064;-69
2023/07/16 06:20:28;;;;;;;7.23;1.73;;;;;;;20.74;67.82;100217.81;5056316;28;20021;-69
2023/07/16 06:22:54;;;;;;;11.27;2.00;;;;;;;20.82;67.59;100223.69;5055110;28;20033;-69
2023/07/16 06:25:19;;;;;;;8.07;1.70;;;;;;;20.88;67.12;100219.88;5042320;28;20040;-69
2023/07/16 06:27:44;;;;;;;9.57;1.88;;;;;;;20.94;67.45;100216.88;5036337;28;20087;-69
2023/07/16 06:30:10;;;;;;;11.50;1.77;;;;;;;21.00;66.96;100213.06;5036202;28;20040;-69
2023/07/16 06:32:35;;;;;;;14.93;2.47;;;;;;;21.05;66.43;100221.72;5036201;28;20112;-69
2023/07/16 06:35:01;;;;;;;9.80;1.90;;;;;;;21.06;66.97;100224.34;5036283;28;20124;-69
2023/07/16 06:37:26;;;;;;;10.43;2.07;;;;;;;21.10;66.52;100227.75;5036405;28;20036;-69
2023/07/16 06:39:51;;;;;;;11.52;2.03;;;;;;;21.19;66.46;100229.97;5039725;28;20029;-69
2023/07/16 06:42:17;;;;;;;12.23;2.47;;;;;;;21.31;66.35;100230.28;5038723;28;20120;-69
2023/07/16 06:44:42;;;;;;;10.13;2.47;;;;;;;21.34;66.22;100228.34;5055768;28;20024;-69
2023/07/16 06:47:08;;;;;;;13.83;2.37;;;;;;;21.42;66.01;100227.06;5058458;28;20537;-69
2023/07/16 06:49:33;;;;;;;9.40;1.98;;;;;;;21.51;65.84;100230.16;5059667;28;20079;-69
2023/07/16 06:52:02;;;;;;;10.23;2.30;;;;;;;21.58;65.46;100214.66;5059708;28;20461;-69
2023/07/16 06:54:27;;;;;;;9.88;2.45;;;;;;;21.68;65.26;100215.06;5050795;28;20017;-69
2023/07/16 06:56:53;;;;;;;11.85;2.15;;;;;;;21.77;65.28;100216.41;5046628;28;20119;-69
2023/07/16 06:59:18;;;;;;;14.73;2.57;;;;;;;21.87;65.09;100208.78;5045733;28;20442;-69
2023/07/16 07:01:44;;;;;;;9.73;1.90;;;;;;;22.04;64.62;100210.56;5039589;28;20508;-69
2023/07/16 07:04:09;;;;;;;10.07;2.07;;;;;;;22.27;63.83;100209.31;5039508;28;20038;-69
2023/07/16 07:06:34;;;;;;;9.43;2.20;;;;;;;22.47;63.14;100215.44;5045677;28;20025;-69
2023/07/16 07:09:00;;;;;;;8.65;1.83;;;;;;;22.64;62.92;100210.03;5052831;28;20497;-69
2023/07/16 07:11:25;;;;;;;11.80;2.40;;;;;;;22.81;62.31;100221.63;5055788;28;20033;-69
2023/07/16 07:13:52;;;;;;;11.80;2.40;;;;;;;22.87;61.99;100218.59;5039192;28;20044;-69
2023/07/16 07:16:17;;;;;;;11.13;2.47;;;;;;;22.91;62.07;100216.63;5047963;28;20067;-70
2023/07/16 07:18:43;;;;;;;14.43;2.87;;;;;;;23.00;61.67;100212.53;5064569;28;20032;-69
2023/07/16 07:21:08;;;;;;;12.48;2.55;;;;;;;23.05;61.44;100213.16;5059256;28;20049;-69
2023/07/16 07:23:33;;;;;;;10.17;2.40;;;;;;;23.20;61.07;100206.88;5059225;28;20554;-69
2023/07/16 07:25:59;;;;;;;7.17;1.80;;;;;;;23.44;60.54;100213.63;5039568;28;20502;-69
2023/07/16 07:28:25;;;;;;;13.95;2.00;;;;;;;23.68;60.20;100200.53;5038837;28;20168;-69
2023/07/16 07:30:50;;;;;;;8.73;2.07;;;;;;;23.93;59.19;100201.72;5038774;28;20026;-70
2023/07/16 07:33:16;;;;;;;9.53;2.10;;;;;;;24.16;58.53;100199.47;5039082;28;20036;-69
2023/07/16 07:35:41;;;;;;;7.70;2.30;;;;;;;24.39;58.18;100200.75;5038910;28;20030;-70
2023/07/16 07:38:07;;;;;;;11.53;2.17;;;;;;;24.31;57.38;100193.16;5037723;28;20029;-70
2023/07/16 07:40:32;;;;;;;11.17;2.13;;;;;;;24.34;56.91;100192.94;5044032;28;20032;-70
2023/07/16 07:42:58;;;;;;;11.43;2.10;;;;;;;24.38;56.77;100188.25;5044155;28;20052;-70
2023/07/16 07:45:24;;;;;;;13.00;2.27;;;;;;;24.56;56.33;100186.19;5049171;28;20268;-70
2023/07/16 07:47:49;;;;;;;12.95;2.28;;;;;;;24.78;55.78;100188.38;5038820;28;20021;-70
2023/07/16 07:50:15;;;;;;;13.23;2.27;;;;;;;24.99;54.99;100181.72;5038782;28;20037;-70
2023/07/16 07:52:40;;;;;;;14.43;2.00;;;;;;;25.20;53.96;100174.03;5037824;28;20091;-70
2023/07/16 07:55:06;;;;;;;12.87;1.93;;;;;;;25.31;53.74;100176.84;5043928;28;20056;-70
2023/07/16 07:57:31;;;;;;;10.43;2.35;;;;;;;25.41;53.03;100177.09;5053932;28;20025;-70
2023/07/16 07:59:57;;;;;;;13.23;2.30;;;;;;;25.54;52.88;100165.50;5039365;28;20382;-70
2023/07/16 08:02:26;;;;;;;11.45;1.95;;;;;;;25.69;52.92;100166.28;5038442;28;20025;-70
2023/07/16 08:04:52;;;;;;;14.23;2.40;;;;;;;25.64;52.16;100171.97;5038388;28;20061;-70
2023/07/16 08:07:18;;;;;;;10.33;2.10;;;;;;;25.74;52.54;100167.69;5050231;28;20040;-70
2023/07/16 08:09:43;;;;;;;11.65;2.17;;;;;;;25.88;51.50;100172.13;5046916;28;20025;-70
2023/07/16 08:12:09;;;;;;;11.47;2.17;;;;;;;26.02;50.48;100173.84;5054688;28;20101;-70
2023/07/16 08:14:34;;;;;;;11.63;1.90;;;;;;;26.17;50.63;100169.22;5038135;28;20557;-70
2023/07/16 08:17:00;;;;;;;10.55;2.00;;;;;;;26.29;49.49;100166.63;5058672;28;20024;-70
2023/07/16 08:19:25;;;;;;;11.87;2.10;;;;;;;26.29;49.82;100172.88;5058105;28;20397;-70
2023/07/16 08:21:50;;;;;;;11.90;2.40;;;;;;;26.26;50.07;100166.81;5057915;28;20377;-70
2023/07/16 08:24:16;;;;;;;9.90;1.77;;;;;;;26.25;49.72;100165.09;5053463;28;20065;-70
2023/07/16 08:26:41;;;;;;;8.10;1.90;;;;;;;26.17;49.81;100160.28;5038123;28;20028;-70
2023/07/16 08:29:06;;;;;;;11.02;1.90;;;;;;;26.21;49.15;100162.63;5037648;28;20036;-70
2023/07/16 08:31:32;;;;;;;7.90;2.07;;;;;;;26.33;49.20;100160.03;5037644;28;20029;-70
2023/07/16 08:33:57;;;;;;;9.50;2.10;;;;;;;26.46;49.53;100162.69;5037837;28;20025;-70
2023/07/16 08:36:22;;;;;;;12.30;2.17;;;;;;;26.37;48.12;100150.72;5037969;28;20030;-70
2023/07/16 08:38:48;;;;;;;21.00;3.10;;;;;;;26.28;48.05;100144.16;5055183;28;20120;-70
2023/07/16 08:41:14;;;;;;;10.23;2.13;;;;;;;26.24;48.75;100142.66;5046904;28;20025;-70
2023/07/16 08:43:41;;;;;;;7.73;1.70;;;;;;;26.43;48.32;100135.94;5045889;28;20029;-70
2023/07/16 08:46:08;;;;;;;10.68;2.22;;;;;;;26.60;47.29;100149.03;5046346;28;20029;-70
2023/07/16 08:48:33;;;;;;;7.07;1.63;;;;;;;26.49;46.84;100146.28;5037603;28;20112;-70
2023/07/16 08:51:01;;;;;;;10.63;2.13;;;;;;;26.48;46.84;100139.16;5037561;28;20064;-70
2023/07/16 08:53:27;;;;;;;10.43;1.90;;;;;;;26.53;46.35;100136.97;5036008;28;20022;-70
2023/07/16 08:55:53;;;;;;;9.98;1.92;;;;;;;26.65;46.07;100113.59;5049263;28;20390;-70
2023/07/16 08:58:22;;;;;;;9.10;1.80;;;;;;;26.77;45.52;100133.44;5047486;28;20037;-69
2023/07/16 09:00:48;;;;;;;7.93;1.88;;;;;;;26.96;45.34;100137.50;5035979;28;20937;-70
2023/07/16 09:03:16;;;;;;;10.15;1.80;;;;;;;27.12;44.19;100135.31;5037342;28;20033;-70
2023/07/16 09:05:42;;;;;;;8.68;1.88;;;;;;;27.14;43.78;100125.28;5036989;28;20036;-70
2023/07/16 09:08:08;;;;;;;10.73;2.10;;;;;;;27.19;43.89;100128.50;5054470;28;20036;-70
2023/07/16 09:10:34;;;;;;;10.88;2.10;;;;;;;27.27;43.60;100129.75;5051479;28;20031;-70
2023/07/16 09:12:59;;;;;;;9.52;1.80;;;;;;;27.37;43.61;100128.91;5039238;28;20033;-70
2023/07/16 09:15:28;;;;;;;6.37;1.57;;;;;;;27.54;43.49;100134.03;5042934;28;20036;-70
2023/07/16 09:17:54;;;;;;;8.55;1.52;;;;;;;27.71;42.80;100136.28;5056765;28;20086;-70
2023/07/16 09:20:20;;;;;;;10.40;1.60;;;;;;;27.83;42.75;100130.88;5057053;28;20104;-70
2023/07/16 09:22:47;;;;;;;10.52;2.00;;;;;;;27.96;42.00;100126.22;5056893;28;20029;-70
2023/07/16 09:25:13;;;;;;;9.02;1.80;;;;;;;27.97;40.98;100125.22;5044343;28;20029;-70
2023/07/16 09:27:38;;;;;;;10.27;1.77;;;;;;;27.98;41.35;100135.06;5036592;28;20029;-70
2023/07/16 09:30:06;;;;;;;8.60;1.83;;;;;;;28.07;41.55;100144.31;5036752;28;20531;-70
2023/07/16 09:32:36;;;;;;;9.02;1.77;;;;;;;28.18;41.26;100141.63;5036742;28;20079;-70
2023/07/16 09:35:13;;;;;;;7.25;1.77;;;;;;;28.23;40.52;100135.84;5054242;28;20485;-70
2023/07/16 09:37:40;;;;;;;8.35;1.95;;;;;;;28.30;40.45;100131.63;5056750;28;20120;-70
2023/07/16 09:40:11;;;;;;;7.97;1.70;;;;;;;28.29;40.38;100127.22;5055517;28;20115;-70
2023/07/16 09:42:41;;;;;;;6.27;1.60;;;;;;;28.37;40.86;100132.00;5039349;28;20107;-70
2023/07/16 09:45:08;;;;;;;8.27;1.80;;;;;;;28.50;40.46;100137.28;5051715;28;20092;-70
2023/07/16 09:47:34;;;;;;;7.22;1.80;;;;;;;28.63;39.83;100129.88;5036883;28;20060;-70
2023/07/16 09:50:00;;;;;;;9.98;1.67;;;;;;;28.75;40.03;100130.69;5036647;28;20029;-70
2023/07/16 09:52:27;;;;;;;7.83;1.67;;;;;;;28.87;39.76;100128.84;5036774;28;20398;-70
2023/07/16 09:54:55;;;;;;;11.63;2.10;;;;;;;28.96;39.24;100124.50;5039566;28;20108;-70
2023/07/16 09:57:23;;;;;;;9.43;1.90;;;;;;;29.02;39.12;100115.84;5052450;28;20053;-70
2023/07/16 09:59:51;;;;;;;8.75;1.63;;;;;;;29.03;38.25;100112.16;5039588;28;20036;-70
2023/07/16 10:02:18;;;;;;;6.43;1.60;;;;;;;29.01;37.96;100115.97;5036675;28;20029;-70
2023/07/16 10:04:43;;;;;;;9.90;1.60;;;;;;;29.04;37.50;100115.69;5036599;28;20033;-70
2023/07/16 10:07:21;;;;;;;7.60;1.75;;;;;;;29.11;37.71;100119.63;5045916;28;20405;-70
2023/07/16 10:09:56;;;;;;;8.50;1.63;;;;;;;29.25;37.25;100107.59;5045867;28;20038;-70
2023/07/16 10:12:25;;;;;;;6.23;1.40;;;;;;;29.40;36.92;100115.41;5049680;28;20029;-69
2023/07/16 10:14:57;;;;;;;7.53;1.60;;;;;;;29.50;36.49;100111.78;5043835;28;20033;-69
2023/07/16 10:17:24;;;;;;;9.20;1.63;;;;;;;29.57;35.99;100114.00;5060620;28;20104;-70
2023/07/16 10:19:59;;;;;;;6.95;1.50;;;;;;;29.58;36.31;100113.00;5060472;28;20029;-70
2023/07/16 10:22:33;;;;;;;9.20;1.60;;;;;;;29.69;36.21;100112.06;5059034;28;20041;-70
2023/07/16 10:24:59;;;;;;;7.10;1.60;;;;;;;29.78;35.79;100106.69;5049814;28;20053;-70
2023/07/16 10:27:33;;;;;;;6.75;1.38;;;;;;;29.84;35.70;100097.13;5040082;28;20037;-70
2023/07/16 10:30:02;;;;;;;7.63;1.70;;;;;;;29.98;34.28;100089.63;5046543;28;20037;-70
2023/07/16 10:32:28;;;;;;;6.93;1.48;;;;;;;29.99;34.29;100089.47;5059882;28;20075;-70
2023/07/16 10:34:54;;;;;;;9.52;2.00;;;;;;;30.08;34.40;100090.53;5060445;28;20055;-70
2023/07/16 10:37:19;;;;;;;8.43;1.97;;;;;;;30.14;34.92;100091.84;5060204;28;20477;-70
2023/07/16 10:39:49;;;;;;;8.87;1.83;;;;;;;30.13;35.10;100088.25;5059845;28;20104;-70
2023/07/16 10:42:19;;;;;;;7.40;1.65;;;;;;;30.17;34.84;100086.13;5046630;28;20033;-70
2023/07/16 10:44:45;;;;;;;9.05;1.73;;;;;;;30.20;34.71;100091.28;5050433;28;20029;-69
2023/07/16 10:47:38;;;;;;;9.73;1.70;;;;;;;30.18;34.58;100091.44;5039826;28;20040;-70
2023/07/16 10:50:07;;;;;;;10.05;1.77;;;;;;;30.27;34.16;100083.44;5039425;28;20056;-70
2023/07/16 10:52:33;;;;;;;9.57;1.80;;;;;;;30.31;34.31;100091.19;5040122;28;20057;-70
2023/07/16 10:54:58;;;;;;;7.90;1.60;;;;;;;30.24;34.12;100087.28;5043944;28;20033;-70
2023/07/16 10:57:25;;;;;;;6.93;2.03;;;;;;;30.30;34.47;100086.75;5053648;28;20532;-70
2023/07/16 10:59:52;;;;;;;8.30;2.00;;;;;;;30.39;34.08;100089.63;5041832;28;20108;-70
2023/07/16 11:02:18;;;;;;;6.97;1.70;;;;;;;30.50;33.56;100086.78;5039609;28;20030;-70
2023/07/16 11:04:45;;;;;;;8.48;2.17;;;;;;;30.68;33.25;100091.56;5039615;28;20040;-70
2023/07/16 11:07:12;;;;;;;8.88;1.90;;;;;;;30.79;33.37;100084.13;5050324;28;20473;-70
2023/07/16 11:09:45;;;;;;;5.90;1.67;;;;;;;30.76;32.43;100086.28;5047437;28;20037;-70
2023/07/16 11:12:13;;;;;;;7.07;1.63;;;;;;;30.83;32.92;100086.56;5039501;28;20108;-70
2023/07/16 11:14:42;;;;;;;6.88;1.50;;;;;;;30.90;32.54;100085.84;5038020;28;20025;-70
2023/07/16 11:17:08;;;;;;;6.25;1.70;;;;;;;31.02;32.51;100085.72;5053268;28;20395;-70
2023/07/16 11:19:34;;;;;;;10.50;2.20;;;;;;;31.07;31.94;100089.69;5059134;28;20079;-70